createdAt,value
2022-10-24T00:00:45.255Z,17.22
2022-10-24T00:03:12.598Z,17.29
2022-10-24T00:05:48.032Z,17.30
2022-10-24T00:08:15.627Z,17.34
2022-10-24T00:10:44.384Z,17.09
2022-10-24T00:13:12.584Z,17.11
2022-10-24T00:15:40.798Z,17.01
2022-10-24T00:18:07.424Z,17.04
2022-10-24T00:20:34.166Z,17.28
2022-10-24T00:23:00.875Z,17.20
2022-10-24T00:25:27.614Z,17.07
2022-10-24T00:27:54.533Z,17.10
2022-10-24T00:30:21.447Z,17.00
2022-10-24T00:32:48.091Z,16.97
2022-10-24T00:35:14.781Z,16.86
2022-10-24T00:37:41.562Z,17.27
2022-10-24T00:40:09.391Z,17.06
2022-10-24T00:42:36.583Z,16.95
2022-10-24T00:48:14.978Z,17.16
2022-10-24T00:50:41.967Z,17.22
2022-10-24T00:53:09.146Z,17.02
2022-10-24T00:55:36.061Z,17.09
2022-10-24T00:58:05.313Z,17.05
2022-10-24T01:00:33.872Z,16.94
2022-10-24T01:03:01.297Z,16.95
2022-10-24T01:05:36.885Z,17.24
2022-10-24T01:08:24.641Z,17.11
2022-10-24T01:11:09.509Z,17.26
2022-10-24T01:13:42.137Z,17.11
2022-10-24T01:16:30.429Z,16.88
2022-10-24T01:19:10.799Z,16.95
2022-10-24T01:21:46.098Z,16.79
2022-10-24T01:24:23.261Z,16.89
2022-10-24T01:27:01.709Z,16.86
2022-10-24T01:29:48.461Z,16.96
2022-10-24T01:32:27.579Z,16.96
2022-10-24T01:35:04.651Z,16.87
2022-10-24T01:37:43.862Z,17.03
2022-10-24T01:40:17.782Z,16.98
2022-10-24T01:42:47.589Z,16.80
2022-10-24T01:45:20.930Z,16.94
2022-10-24T01:47:53.240Z,16.94
2022-10-24T01:50:23.871Z,16.98
2022-10-24T01:52:52.675Z,16.82
2022-10-24T01:55:19.421Z,16.98
2022-10-24T01:57:46.128Z,16.80
2022-10-24T02:00:19.273Z,16.76
2022-10-24T02:02:57.439Z,16.76
2022-10-24T02:05:32.351Z,17.02
2022-10-24T02:08:07.324Z,16.82
2022-10-24T02:10:51.174Z,17.17
2022-10-24T02:13:42.380Z,17.11
2022-10-24T02:16:09.568Z,17.17
2022-10-24T02:18:37.478Z,17.08
2022-10-24T02:21:20.168Z,17.44
2022-10-24T02:24:01.298Z,17.29
2022-10-24T02:27:03.815Z,17.12
2022-10-24T02:29:46.390Z,17.06
2022-10-24T02:32:19.581Z,17.26
2022-10-24T02:34:48.768Z,17.14
2022-10-24T02:37:16.573Z,16.95
2022-10-24T02:39:47.307Z,16.98
2022-10-24T02:42:15.701Z,17.27
2022-10-24T02:44:43.907Z,17.39
2022-10-24T02:47:13.364Z,17.39
2022-10-24T02:49:41.735Z,17.20
2022-10-24T02:52:08.925Z,17.32
2022-10-24T02:54:35.525Z,17.25
2022-10-24T02:57:04.058Z,17.05
2022-10-24T02:59:30.920Z,17.14
2022-10-24T03:01:57.872Z,17.19
2022-10-24T03:04:24.584Z,17.50
2022-10-24T03:06:51.182Z,17.30
2022-10-24T03:09:17.768Z,17.36
2022-10-24T03:11:44.401Z,17.24
2022-10-24T03:14:11.030Z,17.31
2022-10-24T03:16:37.689Z,17.47
2022-10-24T03:19:04.370Z,17.50
2022-10-24T03:21:30.936Z,17.52
2022-10-24T03:23:57.721Z,17.46
2022-10-24T03:26:24.629Z,17.35
2022-10-24T03:28:51.195Z,17.48
2022-10-24T03:31:17.797Z,17.26
2022-10-24T03:33:44.463Z,17.48
2022-10-24T03:36:11.141Z,17.52
2022-10-24T03:38:37.737Z,17.44
2022-10-24T03:41:05.143Z,17.18
2022-10-24T03:43:31.754Z,17.20
2022-10-24T03:45:59.479Z,17.16
2022-10-24T03:48:26.885Z,17.43
2022-10-24T03:50:53.656Z,17.50
2022-10-24T03:53:20.266Z,17.29
2022-10-24T03:55:47.059Z,17.20
2022-10-24T03:58:13.826Z,17.18
2022-10-24T04:00:41.510Z,17.21
2022-10-24T04:03:09.700Z,17.18
2022-10-24T04:05:36.746Z,17.30
2022-10-24T04:08:03.767Z,17.29
2022-10-24T04:10:30.450Z,17.48
2022-10-24T04:12:57.137Z,17.47
2022-10-24T04:15:23.741Z,17.46
2022-10-24T04:17:50.763Z,17.36
2022-10-24T04:20:20.052Z,17.53
2022-10-24T04:22:47.671Z,17.14
2022-10-24T04:25:15.160Z,17.32
2022-10-24T04:27:41.895Z,17.34
2022-10-24T04:30:15.517Z,17.31
2022-10-24T04:32:44.286Z,17.32
2022-10-24T04:35:11.384Z,17.37
2022-10-24T04:37:38.000Z,17.12
2022-10-24T04:40:05.166Z,17.24
2022-10-24T04:42:31.971Z,17.25
2022-10-24T04:44:58.597Z,17.16
2022-10-24T04:47:25.226Z,17.15
2022-10-24T04:49:51.853Z,17.09
2022-10-24T04:52:18.487Z,17.31
2022-10-24T04:54:45.070Z,17.31
2022-10-24T04:57:11.829Z,17.09
2022-10-24T04:59:38.448Z,17.18
2022-10-24T05:02:05.144Z,17.20
2022-10-24T05:04:32.037Z,17.09
2022-10-24T05:06:58.732Z,16.94
2022-10-24T05:09:25.490Z,17.28
2022-10-24T05:11:55.132Z,17.14
2022-10-24T05:14:21.970Z,17.03
2022-10-24T05:16:49.304Z,17.05
2022-10-24T05:19:17.083Z,17.12
2022-10-24T05:21:43.724Z,17.13
2022-10-24T05:24:10.397Z,17.05
2022-10-24T05:26:37.018Z,16.90
2022-10-24T05:29:03.936Z,16.95
2022-10-24T05:33:58.151Z,17.30
2022-10-24T05:36:24.854Z,17.02
2022-10-24T05:38:51.482Z,17.10
2022-10-24T05:41:18.127Z,16.91
2022-10-24T05:43:44.781Z,16.88
2022-10-24T05:46:11.338Z,17.16
2022-10-24T05:48:37.949Z,17.19
2022-10-24T05:51:04.904Z,17.17
2022-10-24T05:53:31.776Z,17.22
2022-10-24T05:55:58.364Z,17.26
2022-10-24T05:58:25.024Z,17.24
2022-10-24T06:00:53.970Z,17.16
2022-10-24T06:03:21.743Z,17.15
2022-10-24T06:05:48.976Z,17.17
2022-10-24T06:08:16.074Z,16.89
2022-10-24T06:10:47.698Z,16.95
2022-10-24T06:13:14.891Z,17.07
2022-10-24T06:15:42.964Z,17.30
2022-10-24T06:18:10.040Z,17.25
2022-10-24T06:20:37.245Z,17.32
2022-10-24T06:23:03.873Z,17.30
2022-10-24T06:25:30.546Z,17.20
2022-10-24T06:27:57.287Z,17.29
2022-10-24T06:30:24.048Z,17.26
2022-10-24T06:32:51.020Z,17.31
2022-10-24T06:35:19.091Z,17.28
2022-10-24T06:37:48.005Z,17.31
2022-10-24T06:40:16.355Z,17.31
2022-10-24T06:42:42.997Z,17.15
2022-10-24T06:45:10.271Z,17.28
2022-10-24T06:47:37.027Z,17.37
2022-10-24T06:50:05.003Z,17.17
2022-10-24T06:52:31.718Z,17.28
2022-10-24T06:54:58.363Z,17.21
2022-10-24T06:57:25.367Z,17.33
2022-10-24T06:59:59.208Z,17.18
2022-10-24T07:02:26.449Z,17.16
2022-10-24T07:04:58.866Z,17.11
2022-10-24T07:07:30.603Z,17.09
2022-10-24T07:10:00.515Z,17.41
2022-10-24T07:12:27.123Z,17.40
2022-10-24T07:14:53.806Z,17.42
2022-10-24T07:17:20.981Z,17.33
2022-10-24T07:19:54.980Z,17.17
2022-10-24T07:22:21.944Z,17.22
2022-10-24T07:24:56.124Z,17.17
2022-10-24T07:27:23.450Z,17.07
2022-10-24T07:29:51.415Z,17.05
2022-10-24T07:32:18.911Z,17.29
2022-10-24T07:34:47.621Z,17.25
2022-10-24T07:37:18.810Z,17.25
2022-10-24T07:39:46.567Z,17.19
2022-10-24T07:42:14.364Z,17.23
2022-10-24T07:44:41.100Z,17.16
2022-10-24T07:47:09.689Z,17.28
2022-10-24T07:49:36.515Z,17.30
2022-10-24T07:52:03.593Z,17.28
2022-10-24T07:54:32.994Z,17.17
2022-10-24T07:57:02.996Z,17.12
2022-10-24T07:59:41.854Z,17.16
2022-10-24T08:02:14.209Z,17.10
2022-10-24T08:04:41.442Z,17.15
2022-10-24T08:07:13.017Z,17.26
2022-10-24T08:09:42.130Z,17.26
2022-10-24T08:12:09.551Z,17.16
2022-10-24T08:14:42.468Z,17.28
2022-10-24T08:17:10.407Z,17.18
2022-10-24T08:19:43.658Z,17.09
2022-10-24T08:22:11.843Z,17.14
2022-10-24T08:24:38.413Z,17.21
2022-10-24T08:27:05.084Z,17.21
2022-10-24T08:29:31.685Z,17.27
2022-10-24T08:31:58.505Z,17.23
2022-10-24T08:34:25.138Z,17.23
2022-10-24T08:36:51.942Z,17.25
2022-10-24T08:39:19.862Z,17.18
2022-10-24T08:42:13.772Z,17.14
2022-10-24T08:44:43.915Z,17.27
2022-10-24T08:47:20.317Z,17.35
2022-10-24T08:50:11.511Z,17.32
2022-10-24T08:52:56.458Z,17.25
2022-10-24T08:55:48.305Z,17.23
2022-10-24T08:58:20.070Z,17.28
2022-10-24T09:00:50.545Z,17.12
2022-10-24T09:03:55.967Z,17.19
2022-10-24T09:06:27.497Z,17.34
2022-10-24T09:09:10.934Z,17.60
2022-10-24T09:11:53.239Z,17.74
2022-10-24T09:14:26.989Z,17.72
2022-10-24T09:16:58.719Z,17.76
2022-10-24T09:19:27.679Z,17.85
2022-10-24T09:21:57.168Z,17.86
2022-10-24T09:24:30.949Z,17.91
2022-10-24T09:27:00.423Z,17.88
2022-10-24T09:29:32.358Z,17.95
2022-10-24T09:31:59.818Z,18.03
2022-10-24T09:34:26.509Z,18.13
2022-10-24T09:36:53.259Z,17.94
2022-10-24T09:39:29.978Z,17.95
2022-10-24T09:41:58.385Z,17.94
2022-10-24T09:44:38.012Z,18.06
2022-10-24T09:47:06.799Z,18.09
2022-10-24T09:49:37.122Z,18.09
2022-10-24T09:52:23.686Z,18.02
2022-10-24T09:55:18.508Z,17.93
2022-10-24T09:57:46.852Z,17.87
2022-10-24T10:00:27.004Z,17.90
2022-10-24T10:03:26.293Z,18.04
2022-10-24T10:05:58.667Z,17.93
2022-10-24T10:08:37.078Z,18.03
2022-10-24T10:11:13.415Z,18.04
2022-10-24T10:13:50.887Z,18.03
2022-10-24T10:16:27.758Z,17.98
2022-10-24T10:19:13.205Z,17.97
2022-10-24T10:22:00.945Z,18.01
2022-10-24T10:24:44.234Z,17.95
2022-10-24T10:27:33.448Z,17.87
2022-10-24T10:30:15.325Z,17.99
2022-10-24T10:32:57.976Z,18.01
2022-10-24T10:35:57.775Z,18.04
2022-10-24T10:38:48.906Z,18.24
2022-10-24T10:41:43.084Z,18.19
2022-10-24T10:44:41.351Z,18.25
2022-10-24T10:47:35.308Z,18.21
2022-10-24T10:50:38.481Z,18.30
2022-10-24T10:53:48.388Z,18.27
2022-10-24T10:56:54.611Z,18.29
2022-10-24T10:59:51.092Z,18.24
2022-10-24T11:02:49.395Z,18.27
2022-10-24T11:05:53.062Z,18.30
2022-10-24T11:08:41.732Z,18.30
2022-10-24T11:11:33.986Z,18.30
2022-10-24T11:14:35.817Z,18.35
2022-10-24T11:17:18.002Z,18.51
2022-10-24T11:19:55.324Z,18.53
2022-10-24T11:22:36.829Z,18.67
2022-10-24T11:25:42.803Z,18.80
2022-10-24T11:28:28.906Z,18.86
2022-10-24T11:31:23.425Z,19.01
2022-10-24T11:34:07.168Z,19.27
2022-10-24T11:36:43.328Z,19.43
2022-10-24T11:39:20.502Z,19.40
2022-10-24T11:42:13.024Z,19.53
2022-10-24T11:44:55.358Z,19.56
2022-10-24T11:47:27.731Z,19.73
2022-10-24T11:50:25.859Z,19.64
2022-10-24T11:52:58.121Z,19.71
2022-10-24T11:55:31.532Z,19.76
2022-10-24T11:58:02.215Z,19.82
2022-10-24T12:00:33.624Z,19.77
2022-10-24T12:03:28.675Z,19.90
2022-10-24T12:06:21.096Z,19.86
2022-10-24T12:09:07.649Z,19.98
2022-10-24T12:11:56.644Z,19.92
2022-10-24T12:14:58.992Z,20.00
2022-10-24T12:17:40.578Z,20.04
2022-10-24T12:20:13.669Z,20.08
2022-10-24T12:22:45.099Z,20.27
2022-10-24T12:25:14.951Z,20.26
2022-10-24T12:27:47.090Z,20.19
2022-10-24T12:30:18.876Z,20.00
2022-10-24T12:32:50.561Z,19.88
2022-10-24T12:35:36.205Z,19.88
2022-10-24T12:38:17.073Z,19.94
2022-10-24T12:41:11.667Z,19.91
2022-10-24T12:43:56.927Z,19.93
2022-10-24T12:46:25.632Z,19.91
2022-10-24T12:48:59.837Z,19.94
2022-10-24T12:51:35.742Z,19.91
2022-10-24T12:54:12.745Z,19.94
2022-10-24T12:56:49.329Z,20.07
2022-10-24T12:59:28.161Z,19.96
2022-10-24T13:02:16.095Z,20.07
2022-10-24T13:05:17.602Z,20.08
2022-10-24T13:07:57.590Z,20.03
2022-10-24T13:10:57.264Z,19.98
2022-10-24T13:13:43.543Z,20.05
2022-10-24T13:16:38.319Z,20.03
2022-10-24T13:19:22.524Z,20.01
2022-10-24T13:21:57.523Z,20.24
2022-10-24T13:24:44.230Z,20.22
2022-10-24T13:27:14.752Z,20.28
2022-10-24T13:29:46.330Z,20.24
2022-10-24T13:32:20.768Z,20.34
2022-10-24T13:34:57.825Z,20.33
2022-10-24T13:37:41.530Z,20.19
2022-10-24T13:40:17.532Z,20.15
2022-10-24T13:43:07.564Z,20.22
2022-10-24T13:45:57.580Z,20.23
2022-10-24T13:48:28.414Z,20.11
2022-10-24T13:51:09.886Z,20.11
2022-10-24T13:53:47.739Z,20.12
2022-10-24T13:56:15.553Z,20.10
2022-10-24T13:58:47.836Z,20.11
2022-10-24T14:01:25.291Z,20.19
2022-10-24T14:03:56.263Z,20.35
2022-10-24T14:06:36.669Z,20.29
2022-10-24T14:09:11.654Z,20.22
2022-10-24T14:11:47.223Z,20.26
2022-10-24T14:14:30.274Z,20.37
2022-10-24T14:17:22.982Z,20.55
2022-10-24T14:20:20.384Z,20.84
2022-10-24T14:22:50.024Z,20.98
2022-10-24T14:25:37.705Z,21.15
2022-10-24T14:28:33.189Z,21.03
2022-10-24T14:31:03.951Z,21.27
2022-10-24T14:33:33.648Z,21.24
2022-10-24T14:36:05.211Z,21.08
2022-10-24T14:38:33.956Z,20.99
2022-10-24T14:41:09.048Z,21.07
2022-10-24T14:43:42.573Z,20.85
2022-10-24T14:46:24.861Z,20.70
2022-10-24T14:48:53.050Z,20.61
2022-10-24T14:51:39.633Z,20.51
2022-10-24T14:54:23.733Z,20.47
2022-10-24T14:56:55.069Z,20.47
2022-10-24T14:59:27.160Z,20.34
2022-10-24T15:02:00.915Z,20.27
2022-10-24T15:04:39.363Z,20.29
2022-10-24T15:07:37.966Z,20.31
2022-10-24T15:10:13.081Z,20.33
2022-10-24T15:12:55.017Z,20.25
2022-10-24T15:15:34.529Z,20.27
2022-10-24T15:18:07.853Z,20.33
2022-10-24T15:20:42.588Z,20.23
2022-10-24T15:23:20.996Z,20.21
2022-10-24T15:26:17.374Z,20.19
2022-10-24T15:28:54.050Z,20.13
2022-10-24T15:31:22.071Z,20.08
2022-10-24T15:33:49.093Z,20.08
2022-10-24T15:36:23.257Z,20.07
2022-10-24T15:38:58.464Z,19.95
2022-10-24T15:41:29.824Z,19.96
2022-10-24T15:43:57.401Z,19.95
2022-10-24T15:46:26.229Z,19.90
2022-10-24T15:48:52.872Z,19.86
2022-10-24T15:51:24.411Z,19.83
2022-10-24T15:53:51.717Z,19.80
2022-10-24T15:56:18.361Z,19.66
2022-10-24T15:58:45.145Z,19.71
2022-10-24T16:01:22.186Z,19.61
2022-10-24T16:03:49.015Z,19.62
2022-10-24T16:06:15.722Z,19.62
2022-10-24T16:08:43.484Z,19.68
2022-10-24T16:11:13.036Z,19.66
2022-10-24T16:13:41.239Z,19.57
2022-10-24T16:16:08.953Z,19.51
2022-10-24T16:18:36.937Z,19.41
2022-10-24T16:21:06.718Z,19.45
2022-10-24T16:23:35.921Z,19.44
2022-10-24T16:26:09.811Z,19.40
2022-10-24T16:28:41.077Z,19.33
2022-10-24T16:31:08.329Z,19.39
2022-10-24T16:33:37.204Z,19.32
2022-10-24T16:36:04.543Z,19.22
2022-10-24T16:38:32.543Z,19.35
2022-10-24T16:41:05.259Z,19.38
2022-10-24T16:43:41.430Z,19.31
2022-10-24T16:46:20.373Z,19.34
2022-10-24T16:48:48.341Z,19.26
2022-10-24T16:51:20.624Z,19.32
2022-10-24T16:53:50.562Z,19.28
2022-10-24T16:56:18.942Z,19.21
2022-10-24T16:58:46.929Z,19.23
2022-10-24T17:01:17.213Z,19.15
2022-10-24T17:03:45.322Z,19.11
2022-10-24T17:06:13.049Z,19.11
2022-10-24T17:08:39.932Z,19.06
2022-10-24T17:11:20.184Z,18.90
2022-10-24T17:13:53.679Z,18.95
2022-10-24T17:16:20.824Z,18.94
2022-10-24T17:19:04.674Z,18.88
2022-10-24T17:21:32.894Z,18.91
2022-10-24T17:23:59.805Z,18.99
2022-10-24T17:26:27.876Z,19.06
2022-10-24T17:28:55.851Z,19.05
2022-10-24T17:31:22.651Z,19.08
2022-10-24T17:33:49.532Z,18.98
2022-10-24T17:36:27.360Z,18.95
2022-10-24T17:39:09.263Z,18.97
2022-10-24T17:41:40.579Z,18.95
2022-10-24T17:44:12.514Z,18.86
2022-10-24T17:46:39.303Z,18.82
2022-10-24T17:49:08.023Z,18.60
2022-10-24T17:51:37.396Z,18.56
2022-10-24T17:54:05.819Z,18.64
2022-10-24T17:56:35.283Z,18.59
2022-10-24T17:59:05.495Z,18.51
2022-10-24T18:01:32.740Z,18.45
2022-10-24T18:03:59.745Z,18.55
2022-10-24T18:06:30.396Z,18.52
2022-10-24T18:08:57.272Z,18.46
2022-10-24T18:11:30.053Z,18.44
2022-10-24T18:13:57.053Z,18.32
2022-10-24T18:16:27.363Z,18.45
2022-10-24T18:19:00.459Z,18.37
2022-10-24T18:21:28.538Z,18.31
2022-10-24T18:23:56.266Z,18.22
2022-10-24T18:26:26.440Z,18.18
2022-10-24T18:28:55.226Z,18.22
2022-10-24T18:31:25.590Z,18.20
2022-10-24T18:33:54.195Z,18.17
2022-10-24T18:36:24.656Z,18.15
2022-10-24T18:38:55.014Z,18.10
2022-10-24T18:41:31.184Z,18.10
2022-10-24T18:44:01.818Z,18.17
2022-10-24T18:46:29.582Z,18.15
2022-10-24T18:48:57.155Z,18.02
2022-10-24T18:51:41.763Z,18.02
2022-10-24T18:54:27.260Z,17.99
2022-10-24T18:56:58.580Z,17.98
2022-10-24T18:59:32.341Z,18.02
2022-10-24T19:02:14.530Z,17.98
2022-10-24T19:04:45.772Z,17.97
2022-10-24T19:07:12.486Z,17.97
2022-10-24T19:09:39.176Z,17.97
2022-10-24T19:12:08.229Z,17.92
2022-10-24T19:14:35.995Z,17.99
2022-10-24T19:17:03.416Z,17.92
2022-10-24T19:19:34.794Z,17.88
2022-10-24T19:22:04.709Z,17.74
2022-10-24T19:24:32.678Z,17.43
2022-10-24T19:26:59.883Z,17.27
2022-10-24T19:29:26.842Z,17.00
2022-10-24T19:31:53.384Z,16.91
2022-10-24T19:34:20.074Z,16.76
2022-10-24T19:36:46.922Z,16.80
2022-10-24T19:39:13.642Z,16.78
2022-10-24T19:41:40.377Z,16.60
2022-10-24T19:44:07.188Z,16.82
2022-10-24T19:46:33.858Z,16.69
2022-10-24T19:49:00.690Z,16.49
2022-10-24T19:51:27.579Z,16.50
2022-10-24T19:53:54.615Z,16.56
2022-10-24T19:56:25.206Z,16.55
2022-10-24T19:58:54.295Z,16.59
2022-10-24T20:01:23.674Z,16.49
2022-10-24T20:03:51.470Z,16.29
2022-10-24T20:06:19.152Z,16.19
2022-10-24T20:08:47.320Z,16.27
2022-10-24T20:11:15.612Z,16.26
2022-10-24T20:13:43.671Z,16.27
2022-10-24T20:16:10.606Z,16.15
2022-10-24T20:18:38.668Z,16.12
2022-10-24T20:21:08.471Z,16.18
2022-10-24T20:23:36.543Z,16.07
2022-10-24T20:26:09.444Z,16.07
2022-10-24T20:28:43.107Z,15.95
2022-10-24T20:31:22.060Z,16.01
2022-10-24T20:33:49.240Z,15.96
2022-10-24T20:36:16.318Z,16.04
2022-10-24T20:38:42.989Z,16.02
2022-10-24T20:41:09.681Z,16.02
2022-10-24T20:43:36.387Z,15.98
2022-10-24T20:46:04.909Z,15.90
2022-10-24T20:48:32.923Z,15.97
2022-10-24T20:51:14.225Z,15.83
2022-10-24T20:53:41.676Z,15.81
2022-10-24T20:56:13.908Z,15.64
2022-10-24T20:58:42.144Z,15.71
2022-10-24T21:01:21.824Z,15.63
2022-10-24T21:03:51.962Z,15.59
2022-10-24T21:06:34.499Z,15.61
2022-10-24T21:09:05.681Z,15.47
2022-10-24T21:11:39.091Z,15.49
2022-10-24T21:14:11.642Z,15.49
2022-10-24T21:16:41.495Z,15.45
2022-10-24T21:19:08.138Z,15.45
2022-10-24T21:21:34.698Z,15.51
2022-10-24T21:24:05.654Z,15.47
2022-10-24T21:26:39.713Z,15.47
2022-10-24T21:29:20.963Z,15.49
2022-10-24T21:31:54.540Z,15.45
2022-10-24T21:34:21.094Z,15.52
2022-10-24T21:36:48.068Z,15.42
2022-10-24T21:39:16.195Z,15.35
2022-10-24T21:41:43.936Z,15.37
2022-10-24T21:44:10.788Z,15.50
2022-10-24T21:46:37.561Z,15.50
2022-10-24T21:49:04.175Z,15.43
2022-10-24T21:51:36.080Z,15.43
2022-10-24T21:54:05.619Z,15.40
2022-10-24T21:56:36.682Z,15.38
2022-10-24T21:59:06.458Z,15.40
2022-10-24T22:01:36.013Z,15.33
2022-10-24T22:04:03.755Z,15.18
2022-10-24T22:06:31.882Z,15.18
2022-10-24T22:08:59.053Z,15.23
2022-10-24T22:11:28.186Z,15.17
2022-10-24T22:13:55.254Z,15.17
2022-10-24T22:16:24.640Z,15.24
2022-10-24T22:18:51.901Z,15.26
2022-10-24T22:21:36.599Z,15.08
2022-10-24T22:24:08.885Z,15.13
2022-10-24T22:26:36.770Z,15.02
2022-10-24T22:29:05.394Z,15.21
2022-10-24T22:31:32.243Z,15.19
2022-10-24T22:33:59.281Z,15.11
2022-10-24T22:36:37.676Z,15.09
2022-10-24T22:39:11.178Z,15.06
2022-10-24T22:41:38.014Z,15.00
2022-10-24T22:44:04.932Z,14.93
2022-10-24T22:46:52.599Z,14.81
2022-10-24T22:49:29.417Z,14.96
2022-10-24T22:51:56.323Z,14.89
2022-10-24T22:54:24.599Z,14.87
2022-10-24T22:56:51.855Z,14.90
2022-10-24T22:59:18.792Z,14.65
2022-10-24T23:02:16.258Z,14.64
2022-10-24T23:04:56.414Z,14.79
2022-10-24T23:07:35.391Z,14.77
2022-10-24T23:10:02.079Z,14.77
2022-10-24T23:12:29.745Z,14.82
2022-10-24T23:14:56.705Z,15.01
2022-10-24T23:17:26.304Z,14.81
2022-10-24T23:19:54.567Z,14.87
2022-10-24T23:22:29.546Z,15.14
2022-10-24T23:24:58.665Z,14.94
2022-10-24T23:27:32.876Z,14.87
2022-10-24T23:30:00.949Z,14.92
2022-10-24T23:32:32.060Z,14.87
2022-10-24T23:35:00.085Z,15.00
2022-10-24T23:37:34.943Z,14.98
2022-10-24T23:40:26.823Z,15.01
2022-10-24T23:42:53.738Z,15.05
2022-10-24T23:45:24.145Z,14.95
2022-10-24T23:47:56.733Z,14.97
2022-10-24T23:50:47.804Z,14.93
2022-10-24T23:53:33.004Z,15.15
2022-10-24T23:58:26.461Z,14.83
